sensor_id;sensor_type;location;lat;lon;timestamp;pressure;altitude;pressure_sealevel;temperature;humidity
52105;BME280;38103;42.776;23.112;2023-03-31T00:00:39;93934.09;;;8.57;53.32
52105;BME280;38103;42.776;23.112;2023-03-31T00:03:05;93930.47;;;8.58;53.32
52105;BME280;38103;42.776;23.112;2023-03-31T00:05:35;93926.81;;;8.59;53.14
52105;BME280;38103;42.776;23.112;2023-03-31T00:08:02;93930.59;;;8.64;53.21
52105;BME280;38103;42.776;23.112;2023-03-31T00:10:29;93934.53;;;8.54;53.34
52105;BME280;38103;42.776;23.112;2023-03-31T00:12:56;93928.84;;;8.57;53.51
52105;BME280;38103;42.776;23.112;2023-03-31T00:15:22;93931.34;;;8.52;53.60
52105;BME280;38103;42.776;23.112;2023-03-31T00:17:47;93917.06;;;8.41;53.74
52105;BME280;38103;42.776;23.112;2023-03-31T00:20:14;93931.91;;;8.54;54.13
52105;BME280;38103;42.776;23.112;2023-03-31T00:22:40;93911.13;;;8.46;54.29
52105;BME280;38103;42.776;23.112;2023-03-31T00:25:08;93931.53;;;8.69;54.19
52105;BME280;38103;42.776;23.112;2023-03-31T00:27:34;93929.03;;;8.75;53.90
52105;BME280;38103;42.776;23.112;2023-03-31T00:29:59;93919.88;;;8.77;53.48
52105;BME280;38103;42.776;23.112;2023-03-31T00:32:25;93930.94;;;8.86;53.30
52105;BME280;38103;42.776;23.112;2023-03-31T00:34:50;93926.00;;;8.90;53.16
52105;BME280;38103;42.776;23.112;2023-03-31T00:37:15;93919.84;;;8.96;53.57
52105;BME280;38103;42.776;23.112;2023-03-31T00:39:41;93924.66;;;8.99;52.75
52105;BME280;38103;42.776;23.112;2023-03-31T00:42:09;93914.13;;;8.99;52.66
52105;BME280;38103;42.776;23.112;2023-03-31T00:47:39;93910.44;;;9.00;52.33
52105;BME280;38103;42.776;23.112;2023-03-31T00:50:14;93909.19;;;9.03;52.29
52105;BME280;38103;42.776;23.112;2023-03-31T00:52:44;93909.56;;;9.07;52.23
52105;BME280;38103;42.776;23.112;2023-03-31T00:55:14;93908.06;;;9.11;51.68
52105;BME280;38103;42.776;23.112;2023-03-31T00:57:43;93911.50;;;9.11;51.80
52105;BME280;38103;42.776;23.112;2023-03-31T01:00:11;93915.53;;;9.14;51.45
52105;BME280;38103;42.776;23.112;2023-03-31T01:02:46;93910.94;;;9.21;51.53
52105;BME280;38103;42.776;23.112;2023-03-31T01:05:25;93916.09;;;9.16;51.20
52105;BME280;38103;42.776;23.112;2023-03-31T01:07:53;93892.09;;;9.05;51.10
52105;BME280;38103;42.776;23.112;2023-03-31T01:10:19;93908.53;;;9.20;51.71
52105;BME280;38103;42.776;23.112;2023-03-31T01:12:49;93859.97;;;8.85;51.52
52105;BME280;38103;42.776;23.112;2023-03-31T01:15:16;93919.88;;;9.20;51.37
52105;BME280;38103;42.776;23.112;2023-03-31T01:17:42;93898.09;;;9.13;51.23
52105;BME280;38103;42.776;23.112;2023-03-31T01:23:28;93921.59;;;9.14;51.45
52105;BME280;38103;42.776;23.112;2023-03-31T01:26:10;93918.72;;;9.16;51.41
52105;BME280;38103;42.776;23.112;2023-03-31T01:42:00;93933.75;;;9.15;51.76
52105;BME280;38103;42.776;23.112;2023-03-31T01:49:43;93933.41;;;9.12;51.60
52105;BME280;38103;42.776;23.112;2023-03-31T01:54:49;93941.06;;;9.01;51.92
52105;BME280;38103;42.776;23.112;2023-03-31T01:57:31;93936.94;;;9.05;51.85
52105;BME280;38103;42.776;23.112;2023-03-31T02:00:08;93945.44;;;9.08;52.19
52105;BME280;38103;42.776;23.112;2023-03-31T02:02:47;93939.72;;;9.11;52.43
52105;BME280;38103;42.776;23.112;2023-03-31T02:05:25;93952.75;;;9.05;51.77
52105;BME280;38103;42.776;23.112;2023-03-31T02:08:10;93912.34;;;8.81;52.84
52105;BME280;38103;42.776;23.112;2023-03-31T02:10:40;93949.53;;;8.91;54.95
52105;BME280;38103;42.776;23.112;2023-03-31T02:13:07;93956.75;;;8.96;56.54
52105;BME280;38103;42.776;23.112;2023-03-31T02:15:37;93942.13;;;8.81;58.91
52105;BME280;38103;42.776;23.112;2023-03-31T02:18:06;93965.69;;;8.95;59.75
52105;BME280;38103;42.776;23.112;2023-03-31T02:20:37;93972.19;;;8.92;61.30
52105;BME280;38103;42.776;23.112;2023-03-31T02:23:06;93962.63;;;8.79;61.37
52105;BME280;38103;42.776;23.112;2023-03-31T02:25:35;93988.69;;;8.88;64.70
52105;BME280;38103;42.776;23.112;2023-03-31T02:28:10;93979.41;;;8.85;66.33
52105;BME280;38103;42.776;23.112;2023-03-31T02:33:10;93965.41;;;8.85;70.04
52105;BME280;38103;42.776;23.112;2023-03-31T02:35:35;93950.94;;;8.75;70.89
52105;BME280;38103;42.776;23.112;2023-03-31T02:38:01;93961.91;;;8.72;72.71
52105;BME280;38103;42.776;23.112;2023-03-31T02:40:27;93931.78;;;8.49;73.45
52105;BME280;38103;42.776;23.112;2023-03-31T02:42:52;93944.25;;;8.60;72.74
52105;BME280;38103;42.776;23.112;2023-03-31T02:48:01;93942.75;;;8.46;74.66
52105;BME280;38103;42.776;23.112;2023-03-31T02:50:33;93946.84;;;8.42;75.75
52105;BME280;38103;42.776;23.112;2023-03-31T02:55:59;93944.59;;;8.26;78.06
52105;BME280;38103;42.776;23.112;2023-03-31T03:04:36;93921.25;;;8.11;80.41
52105;BME280;38103;42.776;23.112;2023-03-31T03:10:15;93903.97;;;7.97;80.70
52105;BME280;38103;42.776;23.112;2023-03-31T03:12:45;93902.81;;;7.74;81.14
52105;BME280;38103;42.776;23.112;2023-03-31T03:18:01;93907.50;;;7.90;83.13
52105;BME280;38103;42.776;23.112;2023-03-31T03:20:28;93908.09;;;7.92;82.25
52105;BME280;38103;42.776;23.112;2023-03-31T03:22:58;93899.88;;;7.82;83.40
52105;BME280;38103;42.776;23.112;2023-03-31T03:25:23;93898.66;;;7.85;84.42
52105;BME280;38103;42.776;23.112;2023-03-31T03:27:49;93901.19;;;7.91;86.62
52105;BME280;38103;42.776;23.112;2023-03-31T03:30:17;93898.28;;;8.00;86.42
52105;BME280;38103;42.776;23.112;2023-03-31T03:32:43;93897.56;;;7.92;85.47
52105;BME280;38103;42.776;23.112;2023-03-31T03:35:08;93890.69;;;7.91;84.77
52105;BME280;38103;42.776;23.112;2023-03-31T03:37:34;93900.06;;;8.06;83.30
52105;BME280;38103;42.776;23.112;2023-03-31T03:40:00;93906.34;;;8.05;82.91
52105;BME280;38103;42.776;23.112;2023-03-31T03:42:25;93899.00;;;8.07;81.82
52105;BME280;38103;42.776;23.112;2023-03-31T03:44:51;93897.41;;;8.06;81.89
52105;BME280;38103;42.776;23.112;2023-03-31T03:47:16;93898.59;;;8.10;81.31
52105;BME280;38103;42.776;23.112;2023-03-31T03:49:41;93870.81;;;7.96;80.21
52105;BME280;38103;42.776;23.112;2023-03-31T03:52:07;93898.59;;;8.10;79.86
52105;BME280;38103;42.776;23.112;2023-03-31T03:54:32;93907.56;;;8.02;80.16
52105;BME280;38103;42.776;23.112;2023-03-31T03:56:57;93915.72;;;8.01;79.66
52105;BME280;38103;42.776;23.112;2023-03-31T03:59:23;93916.28;;;8.03;79.15
52105;BME280;38103;42.776;23.112;2023-03-31T04:01:48;93920.59;;;7.97;79.33
52105;BME280;38103;42.776;23.112;2023-03-31T04:04:14;93919.78;;;7.97;79.53
52105;BME280;38103;42.776;23.112;2023-03-31T04:06:40;93930.16;;;7.91;80.05
52105;BME280;38103;42.776;23.112;2023-03-31T04:09:05;93930.63;;;7.88;81.66
52105;BME280;38103;42.776;23.112;2023-03-31T04:11:31;93927.59;;;7.85;80.68
52105;BME280;38103;42.776;23.112;2023-03-31T04:13:56;93911.88;;;7.78;80.05
52105;BME280;38103;42.776;23.112;2023-03-31T04:16:22;93925.19;;;7.83;79.76
52105;BME280;38103;42.776;23.112;2023-03-31T04:18:50;93922.34;;;7.85;79.42
52105;BME280;38103;42.776;23.112;2023-03-31T04:21:17;93918.31;;;7.82;79.82
52105;BME280;38103;42.776;23.112;2023-03-31T04:23:50;93917.47;;;7.88;79.30
52105;BME280;38103;42.776;23.112;2023-03-31T04:26:24;93852.97;;;7.60;76.84
52105;BME280;38103;42.776;23.112;2023-03-31T04:28:58;93906.84;;;7.95;76.86
52105;BME280;38103;42.776;23.112;2023-03-31T04:31:25;93901.66;;;7.88;76.67
52105;BME280;38103;42.776;23.112;2023-03-31T04:33:51;93842.19;;;7.43;76.68
52105;BME280;38103;42.776;23.112;2023-03-31T04:36:17;93905.31;;;7.87;76.44
52105;BME280;38103;42.776;23.112;2023-03-31T04:38:44;93901.81;;;7.93;76.71
52105;BME280;38103;42.776;23.112;2023-03-31T04:41:12;93902.81;;;7.92;76.23
52105;BME280;38103;42.776;23.112;2023-03-31T04:43:37;93897.13;;;7.96;76.46
52105;BME280;38103;42.776;23.112;2023-03-31T04:46:03;93888.94;;;7.85;75.45
52105;BME280;38103;42.776;23.112;2023-03-31T04:48:28;93896.97;;;7.90;75.63
52105;BME280;38103;42.776;23.112;2023-03-31T04:50:53;93897.72;;;7.98;75.80
52105;BME280;38103;42.776;23.112;2023-03-31T04:53:19;93886.16;;;7.99;75.34
52105;BME280;38103;42.776;23.112;2023-03-31T04:55:44;93887.75;;;8.00;75.77
52105;BME280;38103;42.776;23.112;2023-03-31T04:58:10;93895.06;;;7.98;76.21
52105;BME280;38103;42.776;23.112;2023-03-31T05:00:35;93894.66;;;8.01;76.83
52105;BME280;38103;42.776;23.112;2023-03-31T05:03:00;93871.75;;;7.82;76.51
52105;BME280;38103;42.776;23.112;2023-03-31T05:05:26;93889.66;;;7.92;77.18
52105;BME280;38103;42.776;23.112;2023-03-31T05:07:52;93890.69;;;7.91;77.41
52105;BME280;38103;42.776;23.112;2023-03-31T05:10:17;93883.59;;;7.92;78.15
52105;BME280;38103;42.776;23.112;2023-03-31T05:12:42;93882.94;;;7.97;78.16
52105;BME280;38103;42.776;23.112;2023-03-31T05:15:08;93877.22;;;8.00;78.34
52105;BME280;38103;42.776;23.112;2023-03-31T05:17:34;93875.53;;;8.05;77.50
52105;BME280;38103;42.776;23.112;2023-03-31T05:20:00;93865.00;;;8.05;77.11
52105;BME280;38103;42.776;23.112;2023-03-31T05:22:26;93872.63;;;8.14;77.82
52105;BME280;38103;42.776;23.112;2023-03-31T05:24:51;93866.13;;;8.16;76.76
52105;BME280;38103;42.776;23.112;2023-03-31T05:27:17;93868.88;;;8.22;76.20
52105;BME280;38103;42.776;23.112;2023-03-31T05:29:43;93877.38;;;8.24;75.37
52105;BME280;38103;42.776;23.112;2023-03-31T05:32:08;93867.16;;;8.27;75.51
52105;BME280;38103;42.776;23.112;2023-03-31T05:34:34;93873.19;;;8.35;75.08
52105;BME280;38103;42.776;23.112;2023-03-31T05:37:00;93874.34;;;8.39;75.68
52105;BME280;38103;42.776;23.112;2023-03-31T05:39:26;93869.34;;;8.49;74.98
52105;BME280;38103;42.776;23.112;2023-03-31T05:41:57;93841.03;;;8.45;74.40
52105;BME280;38103;42.776;23.112;2023-03-31T05:44:22;93872.06;;;8.74;73.80
52105;BME280;38103;42.776;23.112;2023-03-31T05:46:48;93835.41;;;8.41;73.12
52105;BME280;38103;42.776;23.112;2023-03-31T05:49:13;93867.28;;;8.70;73.05
52105;BME280;38103;42.776;23.112;2023-03-31T05:51:40;93867.97;;;8.78;72.89
52105;BME280;38103;42.776;23.112;2023-03-31T05:54:05;93870.16;;;8.81;72.48
52105;BME280;38103;42.776;23.112;2023-03-31T05:56:31;93875.44;;;8.81;72.12
52105;BME280;38103;42.776;23.112;2023-03-31T05:58:59;93868.53;;;8.80;71.13
52105;BME280;38103;42.776;23.112;2023-03-31T06:01:24;93872.19;;;8.79;72.14
52105;BME280;38103;42.776;23.112;2023-03-31T06:03:49;93797.00;;;8.33;71.06
52105;BME280;38103;42.776;23.112;2023-03-31T06:06:15;93864.78;;;8.88;71.21
52105;BME280;38103;42.776;23.112;2023-03-31T06:08:42;93861.25;;;8.94;71.69
52105;BME280;38103;42.776;23.112;2023-03-31T06:11:16;93865.47;;;8.95;71.12
52105;BME280;38103;42.776;23.112;2023-03-31T06:13:44;93870.31;;;8.98;70.15
52105;BME280;38103;42.776;23.112;2023-03-31T06:16:11;93867.81;;;9.03;70.49
52105;BME280;38103;42.776;23.112;2023-03-31T06:18:37;93863.34;;;9.16;70.65
52105;BME280;38103;42.776;23.112;2023-03-31T06:21:03;93862.56;;;9.27;69.83
52105;BME280;38103;42.776;23.112;2023-03-31T06:23:29;93859.56;;;9.36;69.24
52105;BME280;38103;42.776;23.112;2023-03-31T06:25:59;93858.22;;;9.45;69.34
52105;BME280;38103;42.776;23.112;2023-03-31T06:28:25;93855.69;;;9.50;67.93
52105;BME280;38103;42.776;23.112;2023-03-31T06:30:50;93856.25;;;9.65;67.79
52105;BME280;38103;42.776;23.112;2023-03-31T06:33:23;93853.56;;;9.77;66.93
52105;BME280;38103;42.776;23.112;2023-03-31T06:35:48;93858.25;;;9.99;68.00
52105;BME280;38103;42.776;23.112;2023-03-31T06:38:14;93868.94;;;10.04;66.80
52105;BME280;38103;42.776;23.112;2023-03-31T06:40:41;93824.84;;;9.92;65.86
52105;BME280;38103;42.776;23.112;2023-03-31T06:43:06;93870.94;;;10.26;65.04
52105;BME280;38103;42.776;23.112;2023-03-31T06:45:31;93869.09;;;10.38;65.33
52105;BME280;38103;42.776;23.112;2023-03-31T06:47:57;93865.59;;;10.50;63.95
52105;BME280;38103;42.776;23.112;2023-03-31T06:50:22;93842.91;;;10.66;63.37
52105;BME280;38103;42.776;23.112;2023-03-31T06:52:47;93845.28;;;10.97;62.27
52105;BME280;38103;42.776;23.112;2023-03-31T06:55:16;93832.53;;;11.28;63.54
52105;BME280;38103;42.776;23.112;2023-03-31T06:57:42;93823.69;;;11.40;60.86
52105;BME280;38103;42.776;23.112;2023-03-31T07:00:08;93820.44;;;11.72;59.69
52105;BME280;38103;42.776;23.112;2023-03-31T07:02:33;93804.72;;;11.88;58.49
52105;BME280;38103;42.776;23.112;2023-03-31T07:04:58;93794.19;;;11.93;57.78
52105;BME280;38103;42.776;23.112;2023-03-31T07:07:24;93801.47;;;12.26;55.66
52105;BME280;38103;42.776;23.112;2023-03-31T07:09:49;93794.91;;;12.61;55.47
52105;BME280;38103;42.776;23.112;2023-03-31T07:12:15;93800.03;;;13.01;56.61
52105;BME280;38103;42.776;23.112;2023-03-31T07:14:40;93800.78;;;13.29;54.64
52105;BME280;38103;42.776;23.112;2023-03-31T07:17:05;93809.41;;;13.52;54.41
52105;BME280;38103;42.776;23.112;2023-03-31T07:19:31;93810.13;;;13.81;52.50
52105;BME280;38103;42.776;23.112;2023-03-31T07:21:56;93809.94;;;13.98;53.62
52105;BME280;38103;42.776;23.112;2023-03-31T07:24:21;93811.53;;;13.99;54.76
52105;BME280;38103;42.776;23.112;2023-03-31T07:26:47;93812.88;;;14.12;51.89
52105;BME280;38103;42.776;23.112;2023-03-31T07:29:12;93803.41;;;14.32;51.21
52105;BME280;38103;42.776;23.112;2023-03-31T07:31:38;93812.47;;;14.52;49.15
52105;BME280;38103;42.776;23.112;2023-03-31T07:34:04;93809.84;;;14.62;48.90
52105;BME280;38103;42.776;23.112;2023-03-31T07:36:29;93780.81;;;14.45;47.96
52105;BME280;38103;42.776;23.112;2023-03-31T07:38:55;93821.84;;;14.75;48.94
52105;BME280;38103;42.776;23.112;2023-03-31T07:41:21;93794.97;;;14.82;47.84
52105;BME280;38103;42.776;23.112;2023-03-31T07:43:47;93808.31;;;15.24;47.68
52105;BME280;38103;42.776;23.112;2023-03-31T07:46:22;93811.78;;;15.35;48.38
52105;BME280;38103;42.776;23.112;2023-03-31T07:48:49;93809.34;;;15.55;47.11
52105;BME280;38103;42.776;23.112;2023-03-31T07:51:17;93806.63;;;15.75;48.19
52105;BME280;38103;42.776;23.112;2023-03-31T07:53:44;93801.75;;;16.09;49.03
52105;BME280;38103;42.776;23.112;2023-03-31T07:56:09;93792.59;;;16.31;43.77
52105;BME280;38103;42.776;23.112;2023-03-31T07:58:35;93761.69;;;16.19;44.55
52105;BME280;38103;42.776;23.112;2023-03-31T08:01:00;93780.38;;;16.19;43.27
52105;BME280;38103;42.776;23.112;2023-03-31T08:03:26;93753.22;;;16.02;44.92
52105;BME280;38103;42.776;23.112;2023-03-31T08:05:53;93776.69;;;16.00;44.34
52105;BME280;38103;42.776;23.112;2023-03-31T08:08:19;93780.47;;;15.88;44.56
52105;BME280;38103;42.776;23.112;2023-03-31T08:10:45;93742.19;;;15.52;44.75
52105;BME280;38103;42.776;23.112;2023-03-31T08:13:11;93779.88;;;16.02;45.55
52105;BME280;38103;42.776;23.112;2023-03-31T08:15:36;93779.31;;;16.15;43.91
52105;BME280;38103;42.776;23.112;2023-03-31T08:18:03;93772.78;;;16.42;44.71
52105;BME280;38103;42.776;23.112;2023-03-31T08:20:28;93741.88;;;16.36;43.04
52105;BME280;38103;42.776;23.112;2023-03-31T08:22:54;93770.41;;;16.41;42.28
52105;BME280;38103;42.776;23.112;2023-03-31T08:25:19;93736.22;;;15.87;43.95
52105;BME280;38103;42.776;23.112;2023-03-31T08:27:45;93759.09;;;15.98;42.88
52105;BME280;38103;42.776;23.112;2023-03-31T08:30:15;93770.25;;;16.11;44.39
52105;BME280;38103;42.776;23.112;2023-03-31T08:32:41;93767.91;;;15.94;42.93
52105;BME280;38103;42.776;23.112;2023-03-31T08:35:07;93757.25;;;15.94;45.28
52105;BME280;38103;42.776;23.112;2023-03-31T08:37:32;93758.78;;;16.11;44.22
52105;BME280;38103;42.776;23.112;2023-03-31T08:39:58;93765.41;;;16.18;45.06
52105;BME280;38103;42.776;23.112;2023-03-31T08:45:16;93748.31;;;16.30;43.58
52105;BME280;38103;42.776;23.112;2023-03-31T08:47:44;93748.34;;;16.19;44.77
52105;BME280;38103;42.776;23.112;2023-03-31T08:50:14;93745.66;;;16.25;45.28
52105;BME280;38103;42.776;23.112;2023-03-31T08:52:47;93742.47;;;16.23;44.53
52105;BME280;38103;42.776;23.112;2023-03-31T08:55:50;93745.88;;;16.39;44.01
52105;BME280;38103;42.776;23.112;2023-03-31T08:58:38;93741.38;;;16.29;43.31
52105;BME280;38103;42.776;23.112;2023-03-31T09:03:36;93748.84;;;16.27;44.80
52105;BME280;38103;42.776;23.112;2023-03-31T09:06:11;93738.16;;;16.32;44.87
52105;BME280;38103;42.776;23.112;2023-03-31T09:08:41;93732.09;;;16.16;44.38
52105;BME280;38103;42.776;23.112;2023-03-31T09:19:12;93725.94;;;15.49;46.13
52105;BME280;38103;42.776;23.112;2023-03-31T09:21:42;93734.72;;;15.60;46.41
52105;BME280;38103;42.776;23.112;2023-03-31T09:24:22;93741.13;;;15.59;46.19
52105;BME280;38103;42.776;23.112;2023-03-31T09:26:53;93702.00;;;15.44;46.29
52105;BME280;38103;42.776;23.112;2023-03-31T09:29:40;93728.81;;;15.73;44.74
52105;BME280;38103;42.776;23.112;2023-03-31T09:32:28;93725.88;;;15.75;45.88
52105;BME280;38103;42.776;23.112;2023-03-31T09:35:01;93734.59;;;15.91;46.56
52105;BME280;38103;42.776;23.112;2023-03-31T09:37:36;93725.13;;;15.64;45.94
52105;BME280;38103;42.776;23.112;2023-03-31T09:40:03;93720.84;;;15.68;47.23
52105;BME280;38103;42.776;23.112;2023-03-31T09:42:35;93715.25;;;15.64;46.77
52105;BME280;38103;42.776;23.112;2023-03-31T09:45:02;93683.13;;;15.35;46.53
52105;BME280;38103;42.776;23.112;2023-03-31T09:47:46;93712.38;;;15.45;46.01
52105;BME280;38103;42.776;23.112;2023-03-31T09:50:14;93705.47;;;15.39;47.43
52105;BME280;38103;42.776;23.112;2023-03-31T09:52:43;93704.97;;;15.26;45.82
52105;BME280;38103;42.776;23.112;2023-03-31T09:55:26;93700.75;;;15.15;47.16
52105;BME280;38103;42.776;23.112;2023-03-31T09:57:53;93691.16;;;15.08;45.26
52105;BME280;38103;42.776;23.112;2023-03-31T10:00:20;93688.00;;;14.96;47.36
52105;BME280;38103;42.776;23.112;2023-03-31T10:02:56;93683.72;;;14.90;48.07
52105;BME280;38103;42.776;23.112;2023-03-31T10:05:36;93685.84;;;14.82;46.44
52105;BME280;38103;42.776;23.112;2023-03-31T10:08:58;93683.22;;;14.88;47.31
52105;BME280;38103;42.776;23.112;2023-03-31T10:11:16;93673.34;;;14.83;49.61
52105;BME280;38103;42.776;23.112;2023-03-31T10:16:22;93684.78;;;15.04;47.52
52105;BME280;38103;42.776;23.112;2023-03-31T10:18:48;93676.25;;;15.13;45.81
52105;BME280;38103;42.776;23.112;2023-03-31T10:21:23;93669.00;;;15.29;48.10
52105;BME280;38103;42.776;23.112;2023-03-31T10:23:50;93668.13;;;15.49;47.32
52105;BME280;38103;42.776;23.112;2023-03-31T10:26:18;93635.75;;;15.21;47.10
52105;BME280;38103;42.776;23.112;2023-03-31T10:28:47;93668.16;;;15.44;45.45
52105;BME280;38103;42.776;23.112;2023-03-31T10:31:14;93663.97;;;15.27;44.96
52105;BME280;38103;42.776;23.112;2023-03-31T10:33:47;93658.66;;;15.22;45.85
52105;BME280;38103;42.776;23.112;2023-03-31T10:38:47;93658.19;;;15.04;46.20
52105;BME280;38103;42.776;23.112;2023-03-31T10:41:17;93658.19;;;15.04;46.84
52105;BME280;38103;42.776;23.112;2023-03-31T10:43:54;93658.16;;;15.15;45.92
52105;BME280;38103;42.776;23.112;2023-03-31T10:46:20;93662.38;;;15.16;45.76
52105;BME280;38103;42.776;23.112;2023-03-31T10:48:46;93656.00;;;15.17;45.58
52105;BME280;38103;42.776;23.112;2023-03-31T10:51:20;93648.03;;;15.12;45.22
52105;BME280;38103;42.776;23.112;2023-03-31T10:53:47;93653.66;;;15.00;45.68
52105;BME280;38103;42.776;23.112;2023-03-31T10:56:44;93641.13;;;15.00;46.95
52105;BME280;38103;42.776;23.112;2023-03-31T10:59:17;93657.66;;;14.97;46.46
52105;BME280;38103;42.776;23.112;2023-03-31T11:04:59;93636.31;;;15.13;46.86
52105;BME280;38103;42.776;23.112;2023-03-31T11:07:50;93636.88;;;15.04;47.02
52105;BME280;38103;42.776;23.112;2023-03-31T11:13:24;93627.31;;;14.67;46.96
52105;BME280;38103;42.776;23.112;2023-03-31T11:16:00;93625.75;;;14.55;46.81
52105;BME280;38103;42.776;23.112;2023-03-31T11:24:03;93612.94;;;14.78;48.46
52105;BME280;38103;42.776;23.112;2023-03-31T11:29:49;93607.13;;;14.71;49.07
52105;BME280;38103;42.776;23.112;2023-03-31T11:41:30;93593.78;;;14.81;47.76
52105;BME280;38103;42.776;23.112;2023-03-31T11:44:04;93594.03;;;14.85;48.82
52105;BME280;38103;42.776;23.112;2023-03-31T11:46:52;93587.38;;;14.82;47.73
52105;BME280;38103;42.776;23.112;2023-03-31T11:49:29;93541.72;;;14.44;48.14
52105;BME280;38103;42.776;23.112;2023-03-31T11:52:17;93575.41;;;14.85;49.28
52105;BME280;38103;42.776;23.112;2023-03-31T11:54:56;93551.22;;;14.76;48.95
52105;BME280;38103;42.776;23.112;2023-03-31T11:57:30;93563.13;;;15.05;49.72
52105;BME280;38103;42.776;23.112;2023-03-31T12:00:20;93557.41;;;15.33;48.58
52105;BME280;38103;42.776;23.112;2023-03-31T12:05:37;93550.84;;;15.65;47.50
52105;BME280;38103;42.776;23.112;2023-03-31T12:08:11;93549.22;;;15.69;46.08
52105;BME280;38103;42.776;23.112;2023-03-31T12:10:42;93550.91;;;15.55;46.76
52105;BME280;38103;42.776;23.112;2023-03-31T12:16:04;93545.66;;;15.39;46.65
52105;BME280;38103;42.776;23.112;2023-03-31T12:21:21;93543.59;;;15.30;47.86
52105;BME280;38103;42.776;23.112;2023-03-31T12:23:48;93541.97;;;15.29;46.49
52105;BME280;38103;42.776;23.112;2023-03-31T12:29:06;93497.91;;;15.07;49.00
52105;BME280;38103;42.776;23.112;2023-03-31T12:31:40;93475.44;;;15.24;51.00
52105;BME280;38103;42.776;23.112;2023-03-31T12:34:13;93526.31;;;15.68;47.44
52105;BME280;38103;42.776;23.112;2023-03-31T12:45:09;93499.78;;;16.23;45.32
52105;BME280;38103;42.776;23.112;2023-03-31T12:48:12;93491.69;;;15.98;45.31
52105;BME280;38103;42.776;23.112;2023-03-31T12:51:19;93475.41;;;16.05;46.80
52105;BME280;38103;42.776;23.112;2023-03-31T12:56:25;93476.97;;;16.06;45.24
52105;BME280;38103;42.776;23.112;2023-03-31T12:58:51;93465.09;;;16.23;47.67
52105;BME280;38103;42.776;23.112;2023-03-31T13:01:21;93463.28;;;16.42;44.62
52105;BME280;38103;42.776;23.112;2023-03-31T13:08:54;93449.91;;;16.48;41.30
52105;BME280;38103;42.776;23.112;2023-03-31T13:11:33;93430.38;;;16.28;42.17
52105;BME280;38103;42.776;23.112;2023-03-31T13:16:39;93414.38;;;15.98;44.40
52105;BME280;38103;42.776;23.112;2023-03-31T13:19:05;93405.09;;;15.90;45.29
52105;BME280;38103;42.776;23.112;2023-03-31T13:21:30;93401.84;;;15.98;42.25
52105;BME280;38103;42.776;23.112;2023-03-31T13:24:20;93405.09;;;15.90;45.06
52105;BME280;38103;42.776;23.112;2023-03-31T13:26:46;93395.13;;;15.77;42.21
52105;BME280;38103;42.776;23.112;2023-03-31T13:34:26;93380.00;;;15.96;43.30
52105;BME280;38103;42.776;23.112;2023-03-31T13:37:14;93374.09;;;16.05;44.94
52105;BME280;38103;42.776;23.112;2023-03-31T13:40:12;93365.06;;;15.95;42.44
52105;BME280;38103;42.776;23.112;2023-03-31T13:50:59;93348.94;;;15.57;47.87
52105;BME280;38103;42.776;23.112;2023-03-31T14:07:57;93336.19;;;16.08;42.09
52105;BME280;38103;42.776;23.112;2023-03-31T14:10:29;93334.28;;;15.84;43.19
52105;BME280;38103;42.776;23.112;2023-03-31T14:13:10;93332.19;;;15.81;44.43
52105;BME280;38103;42.776;23.112;2023-03-31T14:18:18;93320.34;;;15.92;43.94
52105;BME280;38103;42.776;23.112;2023-03-31T14:21:03;93322.41;;;15.95;43.16
52105;BME280;38103;42.776;23.112;2023-03-31T14:29:02;93316.25;;;15.75;44.12
52105;BME280;38103;42.776;23.112;2023-03-31T14:32:18;93310.16;;;15.70;44.21
52105;BME280;38103;42.776;23.112;2023-03-31T14:37:13;93306.03;;;15.83;44.16
52105;BME280;38103;42.776;23.112;2023-03-31T14:39:46;93312.00;;;15.74;44.25
52105;BME280;38103;42.776;23.112;2023-03-31T14:42:20;93303.47;;;15.72;44.27
52105;BME280;38103;42.776;23.112;2023-03-31T14:44:47;93294.56;;;15.82;43.88
52105;BME280;38103;42.776;23.112;2023-03-31T14:47:14;93268.38;;;15.65;43.58
52105;BME280;38103;42.776;23.112;2023-03-31T14:49:40;93287.63;;;15.86;44.54
52105;BME280;38103;42.776;23.112;2023-03-31T14:52:20;93287.94;;;15.80;43.10
52105;BME280;38103;42.776;23.112;2023-03-31T14:54:47;93287.28;;;15.69;44.00
52105;BME280;38103;42.776;23.112;2023-03-31T14:57:29;93274.75;;;15.69;44.89
52105;BME280;38103;42.776;23.112;2023-03-31T14:59:55;93282.41;;;15.76;43.42
52105;BME280;38103;42.776;23.112;2023-03-31T15:02:32;93282.84;;;15.83;44.44
52105;BME280;38103;42.776;23.112;2023-03-31T15:05:02;93280.03;;;15.74;43.86
52105;BME280;38103;42.776;23.112;2023-03-31T15:07:28;93257.34;;;15.52;44.95
52105;BME280;38103;42.776;23.112;2023-03-31T15:09:54;93274.81;;;15.64;44.45
52105;BME280;38103;42.776;23.112;2023-03-31T15:12:21;93280.91;;;15.64;45.72
52105;BME280;38103;42.776;23.112;2023-03-31T15:14:54;93286.47;;;15.68;44.74
52105;BME280;38103;42.776;23.112;2023-03-31T15:17:27;93272.19;;;15.59;44.52
52105;BME280;38103;42.776;23.112;2023-03-31T15:19:55;93289.25;;;15.58;45.59
52105;BME280;38103;42.776;23.112;2023-03-31T15:22:24;93286.13;;;15.50;44.38
52105;BME280;38103;42.776;23.112;2023-03-31T15:24:50;93278.66;;;15.52;46.16
52105;BME280;38103;42.776;23.112;2023-03-31T15:29:58;93265.84;;;15.55;45.23
52105;BME280;38103;42.776;23.112;2023-03-31T15:32:34;93265.38;;;15.47;45.59
52105;BME280;38103;42.776;23.112;2023-03-31T15:35:01;93265.88;;;15.49;45.03
52105;BME280;38103;42.776;23.112;2023-03-31T15:37:39;93258.88;;;15.59;44.73
52105;BME280;38103;42.776;23.112;2023-03-31T15:42:42;93266.34;;;15.57;45.88
52105;BME280;38103;42.776;23.112;2023-03-31T15:48:27;93263.28;;;15.44;45.68
52105;BME280;38103;42.776;23.112;2023-03-31T15:51:04;93260.84;;;15.48;45.66
52105;BME280;38103;42.776;23.112;2023-03-31T15:55:57;93249.63;;;15.51;45.97
52105;BME280;38103;42.776;23.112;2023-03-31T15:58:46;93261.53;;;15.59;46.83